sensor_id;sensor_type;location;lat;lon;timestamp;temperature;humidity
26278;DHT22;14000;52.056;8.510;2024-03-29T00:00:52;7.70;99.90
26278;DHT22;14000;52.056;8.510;2024-03-29T00:03:18;7.60;99.90
26278;DHT22;14000;52.056;8.510;2024-03-29T00:05:44;7.60;99.90
26278;DHT22;14000;52.056;8.510;2024-03-29T00:08:10;7.70;99.90
26278;DHT22;14000;52.056;8.510;2024-03-29T00:10:35;7.70;99.90
26278;DHT22;14000;52.056;8.510;2024-03-29T00:13:01;7.70;99.90
26278;DHT22;14000;52.056;8.510;2024-03-29T00:15:26;7.60;99.90
26278;DHT22;14000;52.056;8.510;2024-03-29T00:17:52;7.70;99.90
26278;DHT22;14000;52.056;8.510;2024-03-29T00:20:17;7.70;99.90
26278;DHT22;14000;52.056;8.510;2024-03-29T00:22:45;7.70;99.90
26278;DHT22;14000;52.056;8.510;2024-03-29T00:25:10;7.70;99.90
26278;DHT22;14000;52.056;8.510;2024-03-29T00:27:36;7.70;99.90
26278;DHT22;14000;52.056;8.510;2024-03-29T00:30:02;7.70;99.90
26278;DHT22;14000;52.056;8.510;2024-03-29T00:32:28;7.70;99.90
26278;DHT22;14000;52.056;8.510;2024-03-29T00:34:53;7.70;99.90
26278;DHT22;14000;52.056;8.510;2024-03-29T00:37:19;7.80;99.90
26278;DHT22;14000;52.056;8.510;2024-03-29T00:39:45;7.70;99.90
26278;DHT22;14000;52.056;8.510;2024-03-29T00:42:11;7.70;99.90
26278;DHT22;14000;52.056;8.510;2024-03-29T00:44:41;7.60;99.90
26278;DHT22;14000;52.056;8.510;2024-03-29T00:47:07;7.60;99.90
26278;DHT22;14000;52.056;8.510;2024-03-29T00:49:33;7.60;99.90
26278;DHT22;14000;52.056;8.510;2024-03-29T00:51:59;7.60;99.90
26278;DHT22;14000;52.056;8.510;2024-03-29T00:54:25;7.60;99.90
26278;DHT22;14000;52.056;8.510;2024-03-29T00:56:50;7.50;99.90
26278;DHT22;14000;52.056;8.510;2024-03-29T00:59:16;7.50;99.90
26278;DHT22;14000;52.056;8.510;2024-03-29T01:01:42;7.50;99.90
26278;DHT22;14000;52.056;8.510;2024-03-29T01:04:08;7.40;99.90
26278;DHT22;14000;52.056;8.510;2024-03-29T01:06:34;7.40;99.90
26278;DHT22;14000;52.056;8.510;2024-03-29T01:09:00;7.40;99.90
26278;DHT22;14000;52.056;8.510;2024-03-29T01:11:26;7.40;99.90
26278;DHT22;14000;52.056;8.510;2024-03-29T01:13:52;7.40;99.90
26278;DHT22;14000;52.056;8.510;2024-03-29T01:16:18;7.40;99.90
26278;DHT22;14000;52.056;8.510;2024-03-29T01:18:44;7.50;99.90
26278;DHT22;14000;52.056;8.510;2024-03-29T01:21:09;7.50;99.90
26278;DHT22;14000;52.056;8.510;2024-03-29T01:23:35;7.50;99.90
26278;DHT22;14000;52.056;8.510;2024-03-29T01:26:01;7.50;99.90
26278;DHT22;14000;52.056;8.510;2024-03-29T01:28:26;7.50;99.90
26278;DHT22;14000;52.056;8.510;2024-03-29T01:30:53;7.50;99.90
26278;DHT22;14000;52.056;8.510;2024-03-29T01:33:20;7.60;99.90
26278;DHT22;14000;52.056;8.510;2024-03-29T01:35:45;7.60;99.90
26278;DHT22;14000;52.056;8.510;2024-03-29T01:38:11;7.70;99.90
26278;DHT22;14000;52.056;8.510;2024-03-29T01:40:36;7.70;99.90
26278;DHT22;14000;52.056;8.510;2024-03-29T01:43:02;7.70;99.90
26278;DHT22;14000;52.056;8.510;2024-03-29T01:45:29;7.70;99.90
26278;DHT22;14000;52.056;8.510;2024-03-29T01:47:55;7.70;99.90
26278;DHT22;14000;52.056;8.510;2024-03-29T01:50:21;7.70;99.90
26278;DHT22;14000;52.056;8.510;2024-03-29T01:52:47;7.70;99.90
26278;DHT22;14000;52.056;8.510;2024-03-29T01:55:14;7.80;99.90
26278;DHT22;14000;52.056;8.510;2024-03-29T01:57:40;7.90;99.90
26278;DHT22;14000;52.056;8.510;2024-03-29T02:00:06;7.90;99.90
26278;DHT22;14000;52.056;8.510;2024-03-29T02:02:33;8.00;99.90
26278;DHT22;14000;52.056;8.510;2024-03-29T02:04:59;8.00;99.90
26278;DHT22;14000;52.056;8.510;2024-03-29T02:07:25;8.00;99.90
26278;DHT22;14000;52.056;8.510;2024-03-29T02:09:51;8.10;99.90
26278;DHT22;14000;52.056;8.510;2024-03-29T02:12:17;8.10;99.90
26278;DHT22;14000;52.056;8.510;2024-03-29T02:14:42;8.10;99.90
26278;DHT22;14000;52.056;8.510;2024-03-29T02:17:08;8.20;99.90
26278;DHT22;14000;52.056;8.510;2024-03-29T02:19:34;8.20;99.90
26278;DHT22;14000;52.056;8.510;2024-03-29T02:22:00;8.10;99.90
26278;DHT22;14000;52.056;8.510;2024-03-29T02:24:27;8.10;99.90
26278;DHT22;14000;52.056;8.510;2024-03-29T02:26:54;8.10;99.90
26278;DHT22;14000;52.056;8.510;2024-03-29T02:29:21;8.10;99.90
26278;DHT22;14000;52.056;8.510;2024-03-29T02:31:47;8.20;99.90
26278;DHT22;14000;52.056;8.510;2024-03-29T02:34:12;8.20;99.90
26278;DHT22;14000;52.056;8.510;2024-03-29T02:36:38;8.20;99.90
26278;DHT22;14000;52.056;8.510;2024-03-29T02:39:04;8.10;99.90
26278;DHT22;14000;52.056;8.510;2024-03-29T02:41:29;8.20;99.90
26278;DHT22;14000;52.056;8.510;2024-03-29T02:43:56;8.20;99.90
26278;DHT22;14000;52.056;8.510;2024-03-29T02:46:21;8.20;99.90
26278;DHT22;14000;52.056;8.510;2024-03-29T02:48:47;8.20;99.90
26278;DHT22;14000;52.056;8.510;2024-03-29T02:51:13;8.20;99.90
26278;DHT22;14000;52.056;8.510;2024-03-29T02:53:38;8.20;99.90
26278;DHT22;14000;52.056;8.510;2024-03-29T02:56:04;8.20;99.90
26278;DHT22;14000;52.056;8.510;2024-03-29T02:58:34;8.30;99.90
26278;DHT22;14000;52.056;8.510;2024-03-29T03:01:08;8.30;99.90
26278;DHT22;14000;52.056;8.510;2024-03-29T03:03:35;8.40;99.90
26278;DHT22;14000;52.056;8.510;2024-03-29T03:06:00;8.30;99.90
26278;DHT22;14000;52.056;8.510;2024-03-29T03:08:26;8.40;99.90
26278;DHT22;14000;52.056;8.510;2024-03-29T03:11:10;8.40;99.90
26278;DHT22;14000;52.056;8.510;2024-03-29T03:13:35;8.40;99.90
26278;DHT22;14000;52.056;8.510;2024-03-29T03:16:01;8.40;99.90
26278;DHT22;14000;52.056;8.510;2024-03-29T03:18:27;8.30;99.90
26278;DHT22;14000;52.056;8.510;2024-03-29T03:20:53;8.30;99.90
26278;DHT22;14000;52.056;8.510;2024-03-29T03:23:20;8.30;99.90
26278;DHT22;14000;52.056;8.510;2024-03-29T03:26:03;8.20;99.90
26278;DHT22;14000;52.056;8.510;2024-03-29T03:28:29;8.20;99.90
26278;DHT22;14000;52.056;8.510;2024-03-29T03:30:55;8.20;99.90
26278;DHT22;14000;52.056;8.510;2024-03-29T03:33:20;8.10;99.90
26278;DHT22;14000;52.056;8.510;2024-03-29T03:35:46;8.10;99.90
26278;DHT22;14000;52.056;8.510;2024-03-29T03:38:12;8.10;99.90
26278;DHT22;14000;52.056;8.510;2024-03-29T03:40:38;8.10;99.90
26278;DHT22;14000;52.056;8.510;2024-03-29T03:43:05;8.10;99.90
26278;DHT22;14000;52.056;8.510;2024-03-29T03:45:38;8.20;99.90
26278;DHT22;14000;52.056;8.510;2024-03-29T03:48:06;8.20;99.90
26278;DHT22;14000;52.056;8.510;2024-03-29T03:50:32;8.20;99.90
26278;DHT22;14000;52.056;8.510;2024-03-29T03:52:57;8.20;99.90
26278;DHT22;14000;52.056;8.510;2024-03-29T03:55:23;8.20;99.90
26278;DHT22;14000;52.056;8.510;2024-03-29T03:57:49;8.20;99.90
26278;DHT22;14000;52.056;8.510;2024-03-29T04:00:17;8.30;99.90
26278;DHT22;14000;52.056;8.510;2024-03-29T04:02:49;8.20;99.90
26278;DHT22;14000;52.056;8.510;2024-03-29T04:05:19;8.30;99.90
26278;DHT22;14000;52.056;8.510;2024-03-29T04:07:45;8.30;99.90
26278;DHT22;14000;52.056;8.510;2024-03-29T04:10:11;8.40;99.90
26278;DHT22;14000;52.056;8.510;2024-03-29T04:12:37;8.30;99.90
26278;DHT22;14000;52.056;8.510;2024-03-29T04:15:03;8.30;99.90
26278;DHT22;14000;52.056;8.510;2024-03-29T04:17:29;8.30;99.90
26278;DHT22;14000;52.056;8.510;2024-03-29T04:19:58;8.40;99.90
26278;DHT22;14000;52.056;8.510;2024-03-29T04:22:24;8.40;99.90
26278;DHT22;14000;52.056;8.510;2024-03-29T04:24:50;8.40;99.90
26278;DHT22;14000;52.056;8.510;2024-03-29T04:27:15;8.40;99.90
26278;DHT22;14000;52.056;8.510;2024-03-29T04:29:41;8.40;99.90
26278;DHT22;14000;52.056;8.510;2024-03-29T04:32:08;8.30;99.90
26278;DHT22;14000;52.056;8.510;2024-03-29T04:34:33;8.20;99.90
26278;DHT22;14000;52.056;8.510;2024-03-29T04:36:59;8.10;99.90
26278;DHT22;14000;52.056;8.510;2024-03-29T04:39:25;8.00;99.90
26278;DHT22;14000;52.056;8.510;2024-03-29T04:41:50;7.90;99.90
26278;DHT22;14000;52.056;8.510;2024-03-29T04:44:24;7.80;99.90
26278;DHT22;14000;52.056;8.510;2024-03-29T04:46:50;7.70;99.90
26278;DHT22;14000;52.056;8.510;2024-03-29T04:49:18;7.60;99.90
26278;DHT22;14000;52.056;8.510;2024-03-29T04:51:48;7.40;99.90
26278;DHT22;14000;52.056;8.510;2024-03-29T04:54:14;7.20;99.90
26278;DHT22;14000;52.056;8.510;2024-03-29T04:56:41;7.10;99.90
26278;DHT22;14000;52.056;8.510;2024-03-29T04:59:07;7.00;99.90
26278;DHT22;14000;52.056;8.510;2024-03-29T05:01:33;7.00;99.90
26278;DHT22;14000;52.056;8.510;2024-03-29T05:04:00;6.90;99.90
26278;DHT22;14000;52.056;8.510;2024-03-29T05:06:26;6.90;99.90
26278;DHT22;14000;52.056;8.510;2024-03-29T05:08:51;6.80;99.90
26278;DHT22;14000;52.056;8.510;2024-03-29T05:11:18;6.80;99.90
26278;DHT22;14000;52.056;8.510;2024-03-29T05:13:44;6.80;99.90
26278;DHT22;14000;52.056;8.510;2024-03-29T05:16:10;6.80;99.90
26278;DHT22;14000;52.056;8.510;2024-03-29T05:18:35;6.80;99.90
26278;DHT22;14000;52.056;8.510;2024-03-29T05:21:01;6.80;99.90
26278;DHT22;14000;52.056;8.510;2024-03-29T05:23:27;6.80;99.90
26278;DHT22;14000;52.056;8.510;2024-03-29T05:25:52;6.80;99.90
26278;DHT22;14000;52.056;8.510;2024-03-29T05:28:18;6.80;99.90
26278;DHT22;14000;52.056;8.510;2024-03-29T05:30:43;6.80;99.90
26278;DHT22;14000;52.056;8.510;2024-03-29T05:33:09;6.80;99.90
26278;DHT22;14000;52.056;8.510;2024-03-29T05:35:35;6.80;99.90
26278;DHT22;14000;52.056;8.510;2024-03-29T05:38:00;6.80;99.90
26278;DHT22;14000;52.056;8.510;2024-03-29T05:40:26;6.90;99.90
26278;DHT22;14000;52.056;8.510;2024-03-29T05:42:53;6.90;99.90
26278;DHT22;14000;52.056;8.510;2024-03-29T05:47:50;6.90;99.90
26278;DHT22;14000;52.056;8.510;2024-03-29T05:50:15;6.90;99.90
26278;DHT22;14000;52.056;8.510;2024-03-29T05:52:41;6.90;99.90
26278;DHT22;14000;52.056;8.510;2024-03-29T05:55:07;6.90;99.90
26278;DHT22;14000;52.056;8.510;2024-03-29T05:57:35;6.90;99.90
26278;DHT22;14000;52.056;8.510;2024-03-29T06:00:04;6.90;99.90
26278;DHT22;14000;52.056;8.510;2024-03-29T06:02:30;6.90;99.90
26278;DHT22;14000;52.056;8.510;2024-03-29T06:04:56;6.90;99.90
26278;DHT22;14000;52.056;8.510;2024-03-29T06:07:21;6.90;99.90
26278;DHT22;14000;52.056;8.510;2024-03-29T06:09:47;6.90;99.90
26278;DHT22;14000;52.056;8.510;2024-03-29T06:12:12;6.90;99.90
26278;DHT22;14000;52.056;8.510;2024-03-29T06:14:38;6.90;99.90
26278;DHT22;14000;52.056;8.510;2024-03-29T06:17:22;7.00;99.90
26278;DHT22;14000;52.056;8.510;2024-03-29T06:19:48;7.00;99.90
26278;DHT22;14000;52.056;8.510;2024-03-29T06:22:16;7.00;99.90
26278;DHT22;14000;52.056;8.510;2024-03-29T06:24:42;7.00;99.90
26278;DHT22;14000;52.056;8.510;2024-03-29T06:27:09;7.00;99.90
26278;DHT22;14000;52.056;8.510;2024-03-29T06:29:35;7.00;99.90
26278;DHT22;14000;52.056;8.510;2024-03-29T06:32:01;7.10;99.90
26278;DHT22;14000;52.056;8.510;2024-03-29T06:34:30;7.00;99.90
26278;DHT22;14000;52.056;8.510;2024-03-29T06:36:56;7.00;99.90
26278;DHT22;14000;52.056;8.510;2024-03-29T06:39:21;7.10;99.90
26278;DHT22;14000;52.056;8.510;2024-03-29T06:41:47;7.00;99.90
26278;DHT22;14000;52.056;8.510;2024-03-29T06:44:13;7.00;99.90
26278;DHT22;14000;52.056;8.510;2024-03-29T06:46:38;7.00;99.90
26278;DHT22;14000;52.056;8.510;2024-03-29T06:49:04;7.00;99.90
26278;DHT22;14000;52.056;8.510;2024-03-29T06:51:29;7.00;99.90
26278;DHT22;14000;52.056;8.510;2024-03-29T06:53:55;7.00;99.90
26278;DHT22;14000;52.056;8.510;2024-03-29T06:56:21;7.00;99.90
26278;DHT22;14000;52.056;8.510;2024-03-29T06:58:46;7.00;99.90
26278;DHT22;14000;52.056;8.510;2024-03-29T07:01:12;7.00;99.90
26278;DHT22;14000;52.056;8.510;2024-03-29T07:03:37;7.00;99.90
26278;DHT22;14000;52.056;8.510;2024-03-29T07:06:04;7.00;99.90
26278;DHT22;14000;52.056;8.510;2024-03-29T07:08:29;7.00;99.90
26278;DHT22;14000;52.056;8.510;2024-03-29T07:10:59;7.00;99.90
26278;DHT22;14000;52.056;8.510;2024-03-29T07:13:25;7.00;99.90
26278;DHT22;14000;52.056;8.510;2024-03-29T07:15:51;7.00;99.90
26278;DHT22;14000;52.056;8.510;2024-03-29T07:18:17;7.00;99.90
26278;DHT22;14000;52.056;8.510;2024-03-29T07:20:43;7.10;99.90
26278;DHT22;14000;52.056;8.510;2024-03-29T07:23:09;7.10;99.90
26278;DHT22;14000;52.056;8.510;2024-03-29T07:25:37;7.10;99.90
26278;DHT22;14000;52.056;8.510;2024-03-29T07:28:02;7.10;99.90
26278;DHT22;14000;52.056;8.510;2024-03-29T07:30:28;7.00;99.90
26278;DHT22;14000;52.056;8.510;2024-03-29T07:32:54;7.00;99.90
26278;DHT22;14000;52.056;8.510;2024-03-29T07:35:19;7.10;99.90
26278;DHT22;14000;52.056;8.510;2024-03-29T07:37:45;7.10;99.90
26278;DHT22;14000;52.056;8.510;2024-03-29T07:40:16;7.10;99.90
26278;DHT22;14000;52.056;8.510;2024-03-29T07:42:41;7.20;99.90
26278;DHT22;14000;52.056;8.510;2024-03-29T07:45:07;7.20;99.90
26278;DHT22;14000;52.056;8.510;2024-03-29T07:47:33;7.30;99.90
26278;DHT22;14000;52.056;8.510;2024-03-29T07:49:59;7.30;99.90
26278;DHT22;14000;52.056;8.510;2024-03-29T07:52:24;7.40;99.90
26278;DHT22;14000;52.056;8.510;2024-03-29T07:54:50;7.50;99.90
26278;DHT22;14000;52.056;8.510;2024-03-29T07:57:16;7.50;99.90
26278;DHT22;14000;52.056;8.510;2024-03-29T07:59:42;7.60;99.90
26278;DHT22;14000;52.056;8.510;2024-03-29T08:02:08;7.60;99.90
26278;DHT22;14000;52.056;8.510;2024-03-29T08:04:34;7.70;99.90
26278;DHT22;14000;52.056;8.510;2024-03-29T08:07:00;7.70;99.90
26278;DHT22;14000;52.056;8.510;2024-03-29T08:09:25;7.70;99.90
26278;DHT22;14000;52.056;8.510;2024-03-29T08:11:51;7.70;99.90
26278;DHT22;14000;52.056;8.510;2024-03-29T08:14:16;7.70;99.90
26278;DHT22;14000;52.056;8.510;2024-03-29T08:16:42;7.70;99.90
26278;DHT22;14000;52.056;8.510;2024-03-29T08:19:08;7.80;99.90
26278;DHT22;14000;52.056;8.510;2024-03-29T08:21:34;7.80;99.90
26278;DHT22;14000;52.056;8.510;2024-03-29T08:24:00;7.70;99.90
26278;DHT22;14000;52.056;8.510;2024-03-29T08:26:28;7.80;99.90
26278;DHT22;14000;52.056;8.510;2024-03-29T08:28:57;7.80;99.90
26278;DHT22;14000;52.056;8.510;2024-03-29T08:31:24;7.80;99.90
26278;DHT22;14000;52.056;8.510;2024-03-29T08:33:50;7.80;99.90
26278;DHT22;14000;52.056;8.510;2024-03-29T08:36:16;7.80;99.90
26278;DHT22;14000;52.056;8.510;2024-03-29T08:38:41;7.80;99.90
26278;DHT22;14000;52.056;8.510;2024-03-29T08:41:09;7.90;99.90
26278;DHT22;14000;52.056;8.510;2024-03-29T08:43:34;7.90;99.90
26278;DHT22;14000;52.056;8.510;2024-03-29T08:46:00;8.00;99.90
26278;DHT22;14000;52.056;8.510;2024-03-29T08:48:27;8.00;99.90
26278;DHT22;14000;52.056;8.510;2024-03-29T08:50:53;8.00;99.90
26278;DHT22;14000;52.056;8.510;2024-03-29T08:53:19;8.10;99.90
26278;DHT22;14000;52.056;8.510;2024-03-29T08:55:46;8.00;99.90
26278;DHT22;14000;52.056;8.510;2024-03-29T08:58:12;8.10;99.90
26278;DHT22;14000;52.056;8.510;2024-03-29T09:00:37;8.10;99.90
26278;DHT22;14000;52.056;8.510;2024-03-29T09:03:03;8.10;99.90
26278;DHT22;14000;52.056;8.510;2024-03-29T09:05:29;8.20;99.90
26278;DHT22;14000;52.056;8.510;2024-03-29T09:07:55;8.20;99.90
26278;DHT22;14000;52.056;8.510;2024-03-29T09:10:22;8.30;99.90
26278;DHT22;14000;52.056;8.510;2024-03-29T09:12:49;8.30;99.90
26278;DHT22;14000;52.056;8.510;2024-03-29T09:15:14;8.40;99.90
26278;DHT22;14000;52.056;8.510;2024-03-29T09:17:42;8.50;99.90
26278;DHT22;14000;52.056;8.510;2024-03-29T09:20:08;8.60;99.90
26278;DHT22;14000;52.056;8.510;2024-03-29T09:22:34;8.60;99.90
26278;DHT22;14000;52.056;8.510;2024-03-29T09:25:00;8.60;99.90
26278;DHT22;14000;52.056;8.510;2024-03-29T09:27:27;8.70;99.90
26278;DHT22;14000;52.056;8.510;2024-03-29T09:29:54;8.70;99.90
26278;DHT22;14000;52.056;8.510;2024-03-29T09:32:19;8.70;99.90
26278;DHT22;14000;52.056;8.510;2024-03-29T09:34:46;8.80;99.90
26278;DHT22;14000;52.056;8.510;2024-03-29T09:37:12;8.80;99.90
26278;DHT22;14000;52.056;8.510;2024-03-29T09:39:39;8.90;99.90
26278;DHT22;14000;52.056;8.510;2024-03-29T09:42:06;9.00;99.90
26278;DHT22;14000;52.056;8.510;2024-03-29T09:44:33;9.00;99.90
26278;DHT22;14000;52.056;8.510;2024-03-29T09:47:04;9.10;99.90
26278;DHT22;14000;52.056;8.510;2024-03-29T09:49:31;9.20;99.90
26278;DHT22;14000;52.056;8.510;2024-03-29T09:52:01;9.30;99.90
26278;DHT22;14000;52.056;8.510;2024-03-29T09:54:29;9.40;99.90
26278;DHT22;14000;52.056;8.510;2024-03-29T09:56:57;9.40;99.90
26278;DHT22;14000;52.056;8.510;2024-03-29T09:59:24;9.50;99.90
26278;DHT22;14000;52.056;8.510;2024-03-29T10:01:54;9.60;99.90
26278;DHT22;14000;52.056;8.510;2024-03-29T10:04:23;9.70;99.90
26278;DHT22;14000;52.056;8.510;2024-03-29T10:06:51;9.70;99.90
26278;DHT22;14000;52.056;8.510;2024-03-29T10:09:20;9.80;99.90
26278;DHT22;14000;52.056;8.510;2024-03-29T10:11:46;9.90;99.90
26278;DHT22;14000;52.056;8.510;2024-03-29T10:14:12;9.90;99.90
26278;DHT22;14000;52.056;8.510;2024-03-29T10:16:38;10.10;99.90
26278;DHT22;14000;52.056;8.510;2024-03-29T10:19:04;10.20;99.90
26278;DHT22;14000;52.056;8.510;2024-03-29T10:21:30;10.20;99.90
26278;DHT22;14000;52.056;8.510;2024-03-29T10:23:55;10.20;99.90
26278;DHT22;14000;52.056;8.510;2024-03-29T10:26:21;10.30;99.90
26278;DHT22;14000;52.056;8.510;2024-03-29T10:28:47;10.30;99.90
26278;DHT22;14000;52.056;8.510;2024-03-29T10:31:14;10.40;99.90
26278;DHT22;14000;52.056;8.510;2024-03-29T10:33:42;10.40;99.90
26278;DHT22;14000;52.056;8.510;2024-03-29T10:36:08;10.50;99.90
26278;DHT22;14000;52.056;8.510;2024-03-29T10:38:37;10.50;99.90
26278;DHT22;14000;52.056;8.510;2024-03-29T10:41:07;10.60;99.90
26278;DHT22;14000;52.056;8.510;2024-03-29T10:43:33;10.80;99.90
26278;DHT22;14000;52.056;8.510;2024-03-29T10:46:03;10.90;99.90
26278;DHT22;14000;52.056;8.510;2024-03-29T10:48:30;11.10;99.90
26278;DHT22;14000;52.056;8.510;2024-03-29T10:50:58;11.30;99.90
26278;DHT22;14000;52.056;8.510;2024-03-29T10:53:24;11.30;99.90
26278;DHT22;14000;52.056;8.510;2024-03-29T10:55:58;11.40;99.90
26278;DHT22;14000;52.056;8.510;2024-03-29T10:58:29;11.50;99.90
26278;DHT22;14000;52.056;8.510;2024-03-29T11:00:57;11.50;99.90
26278;DHT22;14000;52.056;8.510;2024-03-29T11:03:37;11.50;99.90
26278;DHT22;14000;52.056;8.510;2024-03-29T11:06:05;11.50;99.90
26278;DHT22;14000;52.056;8.510;2024-03-29T11:08:35;11.60;99.90
26278;DHT22;14000;52.056;8.510;2024-03-29T11:11:05;11.60;99.90
26278;DHT22;14000;52.056;8.510;2024-03-29T11:13:37;11.70;99.90
26278;DHT22;14000;52.056;8.510;2024-03-29T11:16:04;11.70;99.90
26278;DHT22;14000;52.056;8.510;2024-03-29T11:18:30;11.70;99.90
26278;DHT22;14000;52.056;8.510;2024-03-29T11:20:57;11.70;99.90
26278;DHT22;14000;52.056;8.510;2024-03-29T11:23:26;11.80;99.90
26278;DHT22;14000;52.056;8.510;2024-03-29T11:25:53;11.90;99.90
26278;DHT22;14000;52.056;8.510;2024-03-29T11:28:30;12.00;99.90
26278;DHT22;14000;52.056;8.510;2024-03-29T11:31:06;12.10;99.90
26278;DHT22;14000;52.056;8.510;2024-03-29T11:33:33;12.20;99.90
26278;DHT22;14000;52.056;8.510;2024-03-29T11:36:00;12.30;99.90
26278;DHT22;14000;52.056;8.510;2024-03-29T11:38:31;12.40;99.90
26278;DHT22;14000;52.056;8.510;2024-03-29T11:41:05;12.50;99.90
26278;DHT22;14000;52.056;8.510;2024-03-29T11:43:32;12.50;99.90
26278;DHT22;14000;52.056;8.510;2024-03-29T11:46:00;12.50;99.90
26278;DHT22;14000;52.056;8.510;2024-03-29T11:48:27;12.60;99.90
26278;DHT22;14000;52.056;8.510;2024-03-29T11:50:53;12.70;99.90
26278;DHT22;14000;52.056;8.510;2024-03-29T11:53:20;12.70;99.90
26278;DHT22;14000;52.056;8.510;2024-03-29T11:55:46;12.70;99.90
26278;DHT22;14000;52.056;8.510;2024-03-29T11:58:12;12.70;99.90
26278;DHT22;14000;52.056;8.510;2024-03-29T12:00:39;12.60;99.90
26278;DHT22;14000;52.056;8.510;2024-03-29T12:03:06;12.60;99.90
26278;DHT22;14000;52.056;8.510;2024-03-29T12:05:32;12.80;99.90
26278;DHT22;14000;52.056;8.510;2024-03-29T12:07:58;13.00;99.90
26278;DHT22;14000;52.056;8.510;2024-03-29T12:10:28;13.00;99.90
26278;DHT22;14000;52.056;8.510;2024-03-29T12:12:58;13.10;99.90
26278;DHT22;14000;52.056;8.510;2024-03-29T12:15:24;13.00;99.90
26278;DHT22;14000;52.056;8.510;2024-03-29T12:18:04;13.10;99.90
26278;DHT22;14000;52.056;8.510;2024-03-29T12:20:31;13.00;99.90
26278;DHT22;14000;52.056;8.510;2024-03-29T12:23:01;13.00;99.90
26278;DHT22;14000;52.056;8.510;2024-03-29T12:25:28;13.00;99.90
26278;DHT22;14000;52.056;8.510;2024-03-29T12:27:54;13.10;99.90
26278;DHT22;14000;52.056;8.510;2024-03-29T12:30:20;13.10;99.90
26278;DHT22;14000;52.056;8.510;2024-03-29T12:32:46;13.20;99.90
26278;DHT22;14000;52.056;8.510;2024-03-29T12:35:15;13.50;99.90
26278;DHT22;14000;52.056;8.510;2024-03-29T12:38:04;13.50;99.90
26278;DHT22;14000;52.056;8.510;2024-03-29T12:40:31;13.60;99.90
26278;DHT22;14000;52.056;8.510;2024-03-29T12:43:04;13.70;99.90
26278;DHT22;14000;52.056;8.510;2024-03-29T12:45:31;13.80;99.90
26278;DHT22;14000;52.056;8.510;2024-03-29T12:47:57;13.70;99.90
26278;DHT22;14000;52.056;8.510;2024-03-29T12:52:48;13.70;99.90
26278;DHT22;14000;52.056;8.510;2024-03-29T12:55:13;13.70;99.90
26278;DHT22;14000;52.056;8.510;2024-03-29T12:57:43;13.70;99.90
26278;DHT22;14000;52.056;8.510;2024-03-29T13:00:10;13.70;99.90
26278;DHT22;14000;52.056;8.510;2024-03-29T13:02:36;13.70;99.90
26278;DHT22;14000;52.056;8.510;2024-03-29T13:05:04;13.60;99.90
26278;DHT22;14000;52.056;8.510;2024-03-29T13:07:31;13.60;99.90
26278;DHT22;14000;52.056;8.510;2024-03-29T13:09:57;13.60;99.90
26278;DHT22;14000;52.056;8.510;2024-03-29T13:12:25;13.70;99.90
26278;DHT22;14000;52.056;8.510;2024-03-29T13:14:51;13.90;99.90
26278;DHT22;14000;52.056;8.510;2024-03-29T13:17:17;14.00;99.90
26278;DHT22;14000;52.056;8.510;2024-03-29T13:19:43;14.10;99.90
26278;DHT22;14000;52.056;8.510;2024-03-29T13:22:09;14.30;99.90
26278;DHT22;14000;52.056;8.510;2024-03-29T13:24:34;14.30;99.90
26278;DHT22;14000;52.056;8.510;2024-03-29T13:27:00;14.40;99.90
26278;DHT22;14000;52.056;8.510;2024-03-29T13:29:26;14.40;99.90
26278;DHT22;14000;52.056;8.510;2024-03-29T13:31:52;14.50;99.90
26278;DHT22;14000;52.056;8.510;2024-03-29T13:34:17;14.50;99.90
26278;DHT22;14000;52.056;8.510;2024-03-29T13:36:43;14.60;99.90
26278;DHT22;14000;52.056;8.510;2024-03-29T13:39:10;14.50;99.90
26278;DHT22;14000;52.056;8.510;2024-03-29T13:41:38;14.60;99.90
26278;DHT22;14000;52.056;8.510;2024-03-29T13:44:05;14.70;99.90
26278;DHT22;14000;52.056;8.510;2024-03-29T13:46:35;14.90;99.90
26278;DHT22;14000;52.056;8.510;2024-03-29T13:49:01;14.90;99.90
26278;DHT22;14000;52.056;8.510;2024-03-29T13:51:27;14.90;99.90
26278;DHT22;14000;52.056;8.510;2024-03-29T13:53:53;14.90;99.90
26278;DHT22;14000;52.056;8.510;2024-03-29T13:56:21;14.90;99.90
26278;DHT22;14000;52.056;8.510;2024-03-29T13:58:47;14.80;99.90
26278;DHT22;14000;52.056;8.510;2024-03-29T14:01:13;14.90;99.90
26278;DHT22;14000;52.056;8.510;2024-03-29T14:03:39;14.90;99.90
26278;DHT22;14000;52.056;8.510;2024-03-29T14:06:05;14.90;99.90
26278;DHT22;14000;52.056;8.510;2024-03-29T14:08:31;14.90;99.90
26278;DHT22;14000;52.056;8.510;2024-03-29T14:10:57;14.80;99.90
26278;DHT22;14000;52.056;8.510;2024-03-29T14:13:23;14.70;99.90
26278;DHT22;14000;52.056;8.510;2024-03-29T14:15:49;14.70;99.90
26278;DHT22;14000;52.056;8.510;2024-03-29T14:18:15;14.60;99.90
26278;DHT22;14000;52.056;8.510;2024-03-29T14:20:40;14.60;99.90
26278;DHT22;14000;52.056;8.510;2024-03-29T14:23:06;14.70;99.90
26278;DHT22;14000;52.056;8.510;2024-03-29T14:25:35;14.90;99.90
26278;DHT22;14000;52.056;8.510;2024-03-29T14:28:02;15.70;99.90
26278;DHT22;14000;52.056;8.510;2024-03-29T14:30:28;16.40;99.90
26278;DHT22;14000;52.056;8.510;2024-03-29T14:32:55;16.30;99.90
26278;DHT22;14000;52.056;8.510;2024-03-29T14:35:21;16.10;99.90
26278;DHT22;14000;52.056;8.510;2024-03-29T14:37:47;16.00;99.90
26278;DHT22;14000;52.056;8.510;2024-03-29T14:40:13;15.60;99.90
26278;DHT22;14000;52.056;8.510;2024-03-29T14:42:43;15.40;99.90
26278;DHT22;14000;52.056;8.510;2024-03-29T14:45:09;15.30;99.90
26278;DHT22;14000;52.056;8.510;2024-03-29T14:47:37;15.30;99.90
26278;DHT22;14000;52.056;8.510;2024-03-29T14:50:03;15.30;99.90
26278;DHT22;14000;52.056;8.510;2024-03-29T14:52:30;15.10;99.90
26278;DHT22;14000;52.056;8.510;2024-03-29T14:54:56;15.10;99.90
26278;DHT22;14000;52.056;8.510;2024-03-29T14:57:21;15.10;99.90
26278;DHT22;14000;52.056;8.510;2024-03-29T14:59:48;15.00;99.90
26278;DHT22;14000;52.056;8.510;2024-03-29T15:02:14;14.90;99.90
26278;DHT22;14000;52.056;8.510;2024-03-29T15:04:39;14.90;99.90
26278;DHT22;14000;52.056;8.510;2024-03-29T15:07:05;14.80;99.90
26278;DHT22;14000;52.056;8.510;2024-03-29T15:09:31;14.80;99.90
26278;DHT22;14000;52.056;8.510;2024-03-29T15:11:57;14.80;99.90
26278;DHT22;14000;52.056;8.510;2024-03-29T15:14:22;14.60;99.90
26278;DHT22;14000;52.056;8.510;2024-03-29T15:16:48;14.60;99.90
26278;DHT22;14000;52.056;8.510;2024-03-29T15:19:14;14.60;99.90
26278;DHT22;14000;52.056;8.510;2024-03-29T15:21:40;14.50;99.90
26278;DHT22;14000;52.056;8.510;2024-03-29T15:24:08;14.40;99.90
26278;DHT22;14000;52.056;8.510;2024-03-29T15:26:34;14.40;99.90
26278;DHT22;14000;52.056;8.510;2024-03-29T15:29:02;14.30;99.90
26278;DHT22;14000;52.056;8.510;2024-03-29T15:31:39;14.20;99.90
26278;DHT22;14000;52.056;8.510;2024-03-29T15:34:06;14.10;99.90
26278;DHT22;14000;52.056;8.510;2024-03-29T15:36:33;14.10;99.90
26278;DHT22;14000;52.056;8.510;2024-03-29T15:38:59;14.00;99.90
26278;DHT22;14000;52.056;8.510;2024-03-29T15:41:33;14.00;99.90